Time;durP1;ratioP1;P1;durP2;ratioP2;P2;SDS_P1;SDS_P2;PMS_P1;PMS_P2;Temp;Humidity;BMP_temperature;BMP_pressure;BME280_temperature;BME280_humidity;BME280_pressure;Samples;Min_cycle;Max_cycle;Signal;HPM_P1;HPM_P2
2021/05/13 00:01:58;;;;;;;0.20;0.20;;;11.40;71.40;;;;;;5051948;28;20043;-79
2021/05/13 00:04:24;;;;;;;0.55;0.50;;;11.40;71.40;;;;;;5053211;28;20032;-79
2021/05/13 00:06:49;;;;;;;0.28;0.28;;;11.30;71.40;;;;;;5052807;28;20021;-79
2021/05/13 00:09:15;;;;;;;0.47;0.47;;;11.30;71.50;;;;;;5053087;28;20028;-79
2021/05/13 00:11:44;;;;;;;0.60;0.60;;;11.30;71.60;;;;;;5053070;28;20029;-79
2021/05/13 00:14:10;;;;;;;0.30;0.30;;;11.30;71.60;;;;;;5035245;28;20079;-79
2021/05/13 00:16:37;;;;;;;0.40;0.40;;;11.30;71.60;;;;;;5052959;28;20021;-79
2021/05/13 00:19:11;;;;;;;0.32;0.32;;;11.30;71.70;;;;;;5034869;28;20397;-79
2021/05/13 00:21:37;;;;;;;0.47;0.40;;;11.30;71.70;;;;;;5052571;28;20469;-79
2021/05/13 00:24:05;;;;;;;0.55;0.50;;;11.20;71.70;;;;;;5052671;28;20117;-80
2021/05/13 00:26:41;;;;;;;0.55;0.45;;;11.20;72.40;;;;;;5052834;28;20018;-80
2021/05/13 00:29:21;;;;;;;0.80;0.80;;;11.20;71.80;;;;;;5052987;28;20017;-79
2021/05/13 00:31:47;;;;;;;0.30;0.30;;;11.20;72.40;;;;;;5052855;28;20115;-78
2021/05/13 00:34:12;;;;;;;0.47;0.40;;;11.20;71.90;;;;;;5052516;28;20143;-80
2021/05/13 00:36:39;;;;;;;0.35;0.35;;;11.20;71.90;;;;;;5052706;28;20025;-78
2021/05/13 00:39:06;;;;;;;0.40;0.40;;;11.20;71.90;;;;;;5052856;28;20048;-79
2021/05/13 00:41:32;;;;;;;0.43;0.30;;;11.10;71.90;;;;;;5052829;28;20032;-79
2021/05/13 00:43:58;;;;;;;0.40;0.35;;;11.10;72.00;;;;;;5053529;28;20029;-79
2021/05/13 00:46:24;;;;;;;0.28;0.28;;;11.10;72.00;;;;;;5056686;28;20031;-78
2021/05/13 00:48:52;;;;;;;0.47;0.47;;;11.10;72.10;;;;;;5056263;28;20113;-78
2021/05/13 00:51:17;;;;;;;0.20;0.20;;;11.10;72.10;;;;;;5038904;28;20021;-79
2021/05/13 00:53:47;;;;;;;0.30;0.30;;;11.10;72.20;;;;;;5056737;28;20025;-79
2021/05/13 00:56:14;;;;;;;0.47;0.28;;;11.10;72.30;;;;;;5056638;28;20028;-79
2021/05/13 00:58:45;;;;;;;0.40;0.40;;;11.00;72.30;;;;;;5056394;28;20044;-79
2021/05/13 01:01:16;;;;;;;0.30;0.30;;;11.00;72.30;;;;;;5056642;28;20017;-80
2021/05/13 01:03:42;;;;;;;0.40;0.40;;;11.00;72.50;;;;;;5056056;28;20416;-79
2021/05/13 01:06:13;;;;;;;0.40;0.40;;;11.00;72.50;;;;;;5056486;28;20013;-80
2021/05/13 01:08:40;;;;;;;0.25;0.25;;;11.00;72.60;;;;;;5056570;28;20099;-79
2021/05/13 01:11:11;;;;;;;0.30;0.30;;;10.90;72.60;;;;;;5038706;28;20023;-79
2021/05/13 01:13:51;;;;;;;0.20;0.20;;;10.90;72.60;;;;;;5054969;28;20032;-79
2021/05/13 01:16:26;;;;;;;0.38;0.38;;;10.90;72.60;;;;;;5054998;28;20033;-79
2021/05/13 01:18:52;;;;;;;0.50;0.50;;;10.90;72.70;;;;;;5055745;28;20115;-79
2021/05/13 01:21:18;;;;;;;0.50;0.50;;;10.90;72.80;;;;;;5054762;28;20190;-79
2021/05/13 01:23:43;;;;;;;0.30;0.30;;;10.80;72.90;;;;;;5056063;28;20025;-79
2021/05/13 01:26:09;;;;;;;0.57;0.55;;;10.80;72.90;;;;;;5056145;28;20481;-79
2021/05/13 01:28:35;;;;;;;0.50;0.50;;;10.80;73.00;;;;;;5055915;28;20496;-78
2021/05/13 01:31:00;;;;;;;0.68;0.30;;;10.80;72.90;;;;;;5054796;28;20021;-79
2021/05/13 01:33:26;;;;;;;0.40;0.40;;;10.80;73.00;;;;;;5055523;28;20025;-78
2021/05/13 01:35:52;;;;;;;0.35;0.35;;;10.80;73.10;;;;;;5055707;28;20054;-78
2021/05/13 01:38:21;;;;;;;0.30;0.30;;;10.80;73.20;;;;;;5055824;28;20025;-78
2021/05/13 01:41:03;;;;;;;0.40;0.40;;;10.80;73.20;;;;;;5055852;28;20023;-79
2021/05/13 01:43:30;;;;;;;0.55;0.55;;;10.80;73.30;;;;;;5060982;28;20013;-78
2021/05/13 01:45:55;;;;;;;0.50;0.50;;;10.80;73.30;;;;;;5075641;28;20158;-78
2021/05/13 01:48:21;;;;;;;0.70;0.70;;;10.70;73.20;;;;;;5075343;28;20012;-78
2021/05/13 01:50:48;;;;;;;0.50;0.50;;;10.70;73.30;;;;;;5058123;28;20544;-79
2021/05/13 01:53:14;;;;;;;0.30;0.30;;;10.70;73.40;;;;;;5075656;28;20024;-79
2021/05/13 01:55:40;;;;;;;0.50;0.50;;;10.70;73.40;;;;;;5075316;28;20111;-79
2021/05/13 01:58:05;;;;;;;0.73;0.70;;;10.70;73.40;;;;;;5076147;28;20480;-79
2021/05/13 02:00:32;;;;;;;0.43;0.43;;;10.70;73.50;;;;;;5075681;28;20484;-80
2021/05/13 02:02:58;;;;;;;0.70;0.70;;;10.70;73.50;;;;;;5056881;28;20025;-78
2021/05/13 02:05:23;;;;;;;0.38;0.38;;;10.70;73.50;;;;;;5075474;28;20119;-78
2021/05/13 02:07:50;;;;;;;0.40;0.40;;;10.70;73.60;;;;;;5075390;28;20070;-79
2021/05/13 02:10:16;;;;;;;0.43;0.43;;;10.70;73.60;;;;;;5075102;28;20025;-80
2021/05/13 02:12:43;;;;;;;0.50;0.50;;;10.70;73.60;;;;;;5075312;28;20107;-78
2021/05/13 02:15:11;;;;;;;0.45;0.45;;;10.70;73.70;;;;;;5075293;28;20070;-78
2021/05/13 02:17:37;;;;;;;0.30;0.30;;;10.60;73.80;;;;;;5074756;28;20095;-79
2021/05/13 02:20:09;;;;;;;0.50;0.50;;;10.60;73.80;;;;;;5074823;28;20287;-78
2021/05/13 02:22:35;;;;;;;0.63;0.63;;;10.60;73.90;;;;;;5075129;28;20107;-79
2021/05/13 02:25:00;;;;;;;0.55;0.55;;;10.60;73.90;;;;;;5075055;28;20104;-79
2021/05/13 02:27:26;;;;;;;0.60;0.60;;;10.60;74.00;;;;;;5056970;28;20017;-78
2021/05/13 02:29:52;;;;;;;0.57;0.55;;;10.60;74.00;;;;;;5074490;28;20052;-79
2021/05/13 02:32:17;;;;;;;0.47;0.47;;;10.50;74.00;;;;;;5074828;28;20047;-79
2021/05/13 02:34:43;;;;;;;0.45;0.45;;;10.50;74.10;;;;;;5074846;28;20024;-79
2021/05/13 02:37:08;;;;;;;0.57;0.57;;;10.50;74.10;;;;;;5074641;28;20041;-77
2021/05/13 02:39:34;;;;;;;0.70;0.70;;;10.50;74.20;;;;;;5074753;28;20020;-78
2021/05/13 02:41:59;;;;;;;0.50;0.50;;;10.50;74.30;;;;;;5074736;28;20491;-79
2021/05/13 02:44:25;;;;;;;3.53;1.08;;;10.50;74.40;;;;;;5074241;28;20380;-79
2021/05/13 02:46:51;;;;;;;0.30;0.30;;;10.50;74.30;;;;;;5056564;28;20116;-77
2021/05/13 02:49:16;;;;;;;0.70;0.70;;;10.50;74.40;;;;;;5074607;28;20019;-79
2021/05/13 02:51:42;;;;;;;0.60;0.60;;;10.50;74.40;;;;;;5074521;28;20534;-79
2021/05/13 02:54:07;;;;;;;0.60;0.60;;;10.40;74.40;;;;;;5074360;28;20026;-78
2021/05/13 02:56:33;;;;;;;0.60;0.60;;;10.40;75.10;;;;;;5074237;28;20472;-79
2021/05/13 02:58:58;;;;;;;0.73;0.55;;;10.40;74.50;;;;;;5073697;28;20042;-77
2021/05/13 03:01:29;;;;;;;0.60;0.60;;;10.40;74.60;;;;;;5074248;28;20070;-78
2021/05/13 03:03:57;;;;;;;0.60;0.60;;;10.40;74.60;;;;;;5074517;28;20028;-79
2021/05/13 03:06:24;;;;;;;0.73;0.70;;;10.40;74.60;;;;;;5073397;28;20024;-79
2021/05/13 03:08:57;;;;;;;1.05;0.50;;;10.40;74.60;;;;;;5073933;28;20470;-77
2021/05/13 03:11:25;;;;;;;0.63;0.57;;;10.40;74.70;;;;;;5073946;28;20017;-79
2021/05/13 03:13:54;;;;;;;0.52;0.52;;;10.40;74.70;;;;;;5073685;28;20155;-79
2021/05/13 03:16:20;;;;;;;1.33;1.23;;;10.40;74.80;;;;;;5056123;28;20052;-79
2021/05/13 03:18:53;;;;;;;0.40;0.40;;;10.40;74.80;;;;;;5073863;28;20123;-78
2021/05/13 03:26:14;;;;;;;0.60;0.60;;;10.40;75.00;;;;;;5073959;28;20128;-79
2021/05/13 03:28:39;;;;;;;0.63;0.63;;;10.30;75.00;;;;;;5073344;28;20021;-78
2021/05/13 03:31:05;;;;;;;0.45;0.45;;;10.30;75.00;;;;;;5073616;28;20024;-79
2021/05/13 03:33:30;;;;;;;0.45;0.45;;;10.30;75.20;;;;;;5073653;28;20025;-78
2021/05/13 03:35:56;;;;;;;0.43;0.43;;;10.30;75.20;;;;;;5055699;28;20027;-78
2021/05/13 03:38:21;;;;;;;0.43;0.43;;;10.30;75.30;;;;;;5073550;28;20060;-79
2021/05/13 03:40:48;;;;;;;0.50;0.50;;;10.30;75.30;;;;;;5073634;28;20017;-77
2021/05/13 03:43:14;;;;;;;0.80;0.80;;;10.30;75.30;;;;;;5070848;28;20020;-79
2021/05/13 03:45:40;;;;;;;0.77;0.77;;;10.30;75.30;;;;;;5065856;28;20095;-78
2021/05/13 03:48:06;;;;;;;0.80;0.80;;;10.30;75.40;;;;;;5073076;28;20427;-78
2021/05/13 03:50:37;;;;;;;0.75;0.75;;;10.30;75.50;;;;;;5055363;28;20012;-79
2021/05/13 03:53:05;;;;;;;1.00;0.90;;;10.30;75.50;;;;;;5073344;28;20384;-77
2021/05/13 03:55:31;;;;;;;0.80;0.80;;;10.30;75.50;;;;;;5073303;28;20457;-78
2021/05/13 03:57:57;;;;;;;0.82;0.73;;;10.30;75.50;;;;;;5072842;28;20113;-79
2021/05/13 04:00:31;;;;;;;0.70;0.70;;;10.40;75.60;;;;;;5073464;28;20350;-78
2021/05/13 04:02:57;;;;;;;2.83;1.08;;;10.30;75.60;;;;;;5073380;28;20028;-78
2021/05/13 04:05:23;;;;;;;0.80;0.80;;;10.40;75.60;;;;;;5073306;28;20024;-78
2021/05/13 04:07:49;;;;;;;0.77;0.77;;;10.40;75.80;;;;;;5055243;28;20441;-78
2021/05/13 04:10:15;;;;;;;0.85;0.70;;;10.40;75.70;;;;;;5055396;28;20056;-78
2021/05/13 04:12:41;;;;;;;1.27;1.08;;;10.40;75.80;;;;;;5072741;28;20021;-79
2021/05/13 04:15:09;;;;;;;0.80;0.80;;;10.40;75.80;;;;;;5055156;28;20025;-78
2021/05/13 04:17:35;;;;;;;0.93;0.93;;;10.40;75.80;;;;;;5072775;28;20033;-77
2021/05/13 04:20:03;;;;;;;0.80;0.73;;;10.40;76.50;;;;;;5072833;28;20044;-77
2021/05/13 04:22:28;;;;;;;0.77;0.68;;;10.50;75.80;;;;;;5055032;28;20106;-77
2021/05/13 04:24:54;;;;;;;0.73;0.73;;;10.50;75.80;;;;;;5073508;28;20046;-77
2021/05/13 04:27:19;;;;;;;0.80;0.73;;;10.50;75.80;;;;;;5072687;28;20106;-78
2021/05/13 04:29:44;;;;;;;0.98;0.55;;;10.60;75.80;;;;;;5073016;28;20111;-78
2021/05/13 04:32:10;;;;;;;0.50;0.50;;;10.60;75.80;;;;;;5055107;28;20469;-79
2021/05/13 04:34:36;;;;;;;0.95;0.88;;;10.60;75.80;;;;;;5072761;28;20017;-78
2021/05/13 04:37:01;;;;;;;0.75;0.75;;;10.60;75.80;;;;;;5072851;28;20429;-77
2021/05/13 04:39:27;;;;;;;1.05;1.05;;;10.70;75.90;;;;;;5072996;28;20025;-77
2021/05/13 04:41:52;;;;;;;1.20;1.10;;;10.70;75.90;;;;;;5072406;28;20075;-77
2021/05/13 04:44:18;;;;;;;1.40;1.25;;;10.70;75.90;;;;;;5054967;28;20020;-77
2021/05/13 04:46:44;;;;;;;0.95;0.95;;;10.80;76.00;;;;;;5072776;28;20380;-78
2021/05/13 04:49:16;;;;;;;1.20;1.10;;;10.70;76.00;;;;;;5072746;28;20048;-76
2021/05/13 04:51:44;;;;;;;0.75;0.75;;;10.80;76.00;;;;;;5054876;28;20116;-76
2021/05/13 04:54:14;;;;;;;0.98;0.98;;;10.80;76.00;;;;;;5073255;28;20365;-78
2021/05/13 04:56:40;;;;;;;0.70;0.70;;;10.90;76.00;;;;;;5072361;28;20162;-77
2021/05/13 04:59:05;;;;;;;1.95;1.20;;;10.90;76.00;;;;;;5072718;28;20115;-77
2021/05/13 05:01:31;;;;;;;1.33;1.17;;;10.90;76.00;;;;;;5054724;28;20092;-77
2021/05/13 05:03:57;;;;;;;1.00;1.00;;;11.00;75.90;;;;;;5072606;28;20021;-77
2021/05/13 05:06:22;;;;;;;1.55;1.45;;;11.00;75.90;;;;;;5072588;28;20036;-79
2021/05/13 05:08:48;;;;;;;1.10;1.00;;;11.10;75.90;;;;;;5072617;28;20492;-75
2021/05/13 05:11:16;;;;;;;1.23;1.13;;;11.10;76.00;;;;;;5072040;28;20099;-80
2021/05/13 05:13:43;;;;;;;1.20;1.10;;;11.10;76.00;;;;;;5072546;28;20024;-79
2021/05/13 05:16:09;;;;;;;1.17;1.08;;;11.20;76.10;;;;;;5054594;28;20025;-78
2021/05/13 05:18:34;;;;;;;1.30;1.00;;;11.20;76.10;;;;;;5072380;28;20082;-77
2021/05/13 05:21:00;;;;;;;1.50;1.40;;;11.20;76.10;;;;;;5072435;28;20036;-77
2021/05/13 05:23:27;;;;;;;1.35;1.25;;;11.30;76.10;;;;;;5072355;28;20024;-77
2021/05/13 05:25:53;;;;;;;1.83;1.27;;;11.30;76.10;;;;;;5072038;28;20078;-77
2021/05/13 05:28:18;;;;;;;1.58;1.42;;;11.40;76.10;;;;;;5072435;28;20020;-77
2021/05/13 05:30:44;;;;;;;2.15;1.30;;;11.50;76.10;;;;;;5074230;28;20099;-76
2021/05/13 05:33:10;;;;;;;1.50;1.15;;;11.50;76.10;;;;;;5076057;28;20362;-77
2021/05/13 05:35:38;;;;;;;1.23;1.08;;;11.50;76.10;;;;;;5075842;28;20099;-78
2021/05/13 05:38:05;;;;;;;1.58;1.48;;;11.60;76.20;;;;;;5075862;28;20390;-76
2021/05/13 05:40:31;;;;;;;1.60;1.40;;;11.60;76.30;;;;;;5057319;28;20376;-76
2021/05/13 05:42:57;;;;;;;1.48;1.30;;;11.60;76.30;;;;;;5075945;28;20097;-78
2021/05/13 05:45:23;;;;;;;1.90;1.45;;;11.70;76.30;;;;;;5066412;28;20029;-78
2021/05/13 05:47:50;;;;;;;1.42;1.15;;;11.80;76.20;;;;;;5054481;28;20091;-78
2021/05/13 05:50:17;;;;;;;2.75;1.65;;;11.80;76.20;;;;;;5055587;28;20035;-77
2021/05/13 05:52:43;;;;;;;1.30;1.20;;;11.90;76.20;;;;;;5055606;28;20477;-78
2021/05/13 05:55:10;;;;;;;1.67;1.30;;;12.00;76.20;;;;;;5055020;28;20100;-77
2021/05/13 05:57:36;;;;;;;2.20;1.70;;;12.10;76.20;;;;;;5055451;28;20096;-78
2021/05/13 06:00:04;;;;;;;1.77;1.50;;;12.10;76.20;;;;;;5055438;28;20405;-77
2021/05/13 06:02:29;;;;;;;1.30;1.20;;;12.20;76.20;;;;;;5055276;28;20108;-77
2021/05/13 06:04:55;;;;;;;2.55;1.83;;;12.30;76.20;;;;;;5055558;28;20095;-77
2021/05/13 06:07:21;;;;;;;1.58;1.48;;;12.30;76.20;;;;;;5054975;28;20025;-78
2021/05/13 06:09:47;;;;;;;1.25;1.23;;;12.40;76.20;;;;;;5055225;28;20019;-76
2021/05/13 06:12:13;;;;;;;1.42;1.30;;;12.50;76.10;;;;;;5055273;28;20021;-77
2021/05/13 06:14:39;;;;;;;1.33;1.10;;;12.50;76.10;;;;;;5055278;28;20025;-77
2021/05/13 06:17:05;;;;;;;1.70;1.60;;;12.60;76.10;;;;;;5054830;28;20036;-77
2021/05/13 06:19:31;;;;;;;1.40;1.30;;;12.70;76.00;;;;;;5055039;28;20049;-77
2021/05/13 06:21:56;;;;;;;1.98;1.50;;;12.80;75.90;;;;;;5054701;28;20061;-78
2021/05/13 06:24:22;;;;;;;2.65;2.40;;;12.80;75.70;;;;;;5053878;28;20124;-78
2021/05/13 06:27:01;;;;;;;1.90;1.65;;;12.90;75.70;;;;;;5055058;28;20025;-77
2021/05/13 06:29:28;;;;;;;1.43;1.27;;;13.00;75.70;;;;;;5054926;28;20040;-77
2021/05/13 06:31:55;;;;;;;1.48;1.30;;;13.10;75.70;;;;;;5054956;28;20056;-77
2021/05/13 06:34:20;;;;;;;1.90;1.50;;;13.10;75.70;;;;;;5054863;28;20107;-77
2021/05/13 06:36:46;;;;;;;2.03;1.70;;;13.20;75.70;;;;;;5054338;28;20126;-76
2021/05/13 06:39:14;;;;;;;1.70;1.58;;;13.20;75.60;;;;;;5054762;28;20032;-77
2021/05/13 06:41:41;;;;;;;2.25;1.40;;;13.30;75.70;;;;;;5054576;28;20021;-77
2021/05/13 06:44:08;;;;;;;2.03;1.80;;;13.40;75.70;;;;;;5053431;28;20028;-77
2021/05/13 06:46:35;;;;;;;2.33;1.92;;;13.40;75.70;;;;;;5053222;28;20025;-78
2021/05/13 06:49:00;;;;;;;2.10;1.65;;;13.50;75.60;;;;;;5054611;28;20390;-77
2021/05/13 06:51:26;;;;;;;2.53;1.73;;;13.50;75.60;;;;;;5054050;28;20505;-77
2021/05/13 06:53:51;;;;;;;1.85;1.70;;;13.60;75.60;;;;;;5053133;28;20028;-77
2021/05/13 06:56:18;;;;;;;2.30;2.03;;;13.70;75.50;;;;;;5054435;28;20363;-78
2021/05/13 06:58:44;;;;;;;1.80;1.60;;;13.80;75.30;;;;;;5054339;28;20033;-77
2021/05/13 07:01:10;;;;;;;2.15;1.60;;;13.80;75.40;;;;;;5058887;28;20016;-76
2021/05/13 07:03:36;;;;;;;4.30;1.98;;;13.80;75.50;;;;;;5061086;28;20033;-77
2021/05/13 07:06:01;;;;;;;2.65;2.05;;;13.90;75.60;;;;;;5053800;28;20492;-76
2021/05/13 07:08:27;;;;;;;2.13;1.90;;;13.90;75.60;;;;;;5053999;28;20436;-78
2021/05/13 07:10:53;;;;;;;1.70;1.60;;;14.00;75.60;;;;;;5054113;28;20017;-78
2021/05/13 07:13:19;;;;;;;2.38;1.80;;;14.00;75.60;;;;;;5054145;28;20086;-77
2021/05/13 07:15:44;;;;;;;3.30;2.30;;;14.10;75.50;;;;;;5052742;28;20024;-78
2021/05/13 07:18:17;;;;;;;2.33;1.90;;;14.10;75.40;;;;;;5053923;28;20030;-76
2021/05/13 07:20:44;;;;;;;2.75;2.00;;;14.20;75.30;;;;;;5033097;28;20049;-78
2021/05/13 07:23:10;;;;;;;2.60;1.90;;;14.30;75.40;;;;;;5034010;28;20358;-77
2021/05/13 07:25:36;;;;;;;2.53;1.70;;;14.30;75.40;;;;;;5033942;28;20021;-78
2021/05/13 07:28:02;;;;;;;3.03;2.10;;;14.30;75.40;;;;;;5033863;28;20033;-78
2021/05/13 07:30:28;;;;;;;2.90;2.28;;;14.40;75.30;;;;;;5033793;28;20034;-78
2021/05/13 07:32:54;;;;;;;2.22;1.75;;;14.50;75.20;;;;;;5033625;28;20051;-77
2021/05/13 07:35:20;;;;;;;1.77;1.60;;;14.50;75.20;;;;;;5033200;28;20025;-76
2021/05/13 07:37:47;;;;;;;2.65;2.45;;;14.60;75.20;;;;;;5033707;28;20037;-76
2021/05/13 07:40:15;;;;;;;1.90;1.60;;;14.60;75.10;;;;;;5033669;28;20029;-77
2021/05/13 07:42:40;;;;;;;2.05;1.80;;;14.70;75.20;;;;;;5033757;28;20017;-78
2021/05/13 07:45:07;;;;;;;2.78;2.00;;;14.70;75.20;;;;;;5033480;28;20052;-78
2021/05/13 07:47:37;;;;;;;2.17;1.98;;;14.70;75.10;;;;;;5033539;28;20052;-76
2021/05/13 07:50:11;;;;;;;2.47;2.00;;;14.80;75.00;;;;;;5033224;28;20146;-77
2021/05/13 07:52:37;;;;;;;2.10;1.80;;;14.90;74.90;;;;;;5032821;28;20477;-77
2021/05/13 07:55:04;;;;;;;2.70;2.05;;;14.90;74.90;;;;;;5035393;28;20108;-77
2021/05/13 07:57:29;;;;;;;3.38;2.50;;;15.00;74.80;;;;;;5053001;28;20033;-77
2021/05/13 07:59:55;;;;;;;2.92;2.22;;;15.00;74.70;;;;;;5051978;28;20025;-78
2021/05/13 08:02:21;;;;;;;2.33;2.13;;;15.10;74.70;;;;;;5053075;28;20032;-76
2021/05/13 08:04:48;;;;;;;2.65;2.15;;;15.10;74.60;;;;;;5052767;28;20100;-77
2021/05/13 08:07:14;;;;;;;2.70;2.20;;;15.20;74.50;;;;;;5051837;28;20017;-77
2021/05/13 08:09:39;;;;;;;3.55;2.60;;;15.30;74.40;;;;;;5053391;28;20082;-78
2021/05/13 08:12:05;;;;;;;2.88;2.58;;;15.30;74.20;;;;;;5053197;28;20501;-77
2021/05/13 08:14:30;;;;;;;2.83;2.33;;;15.30;74.20;;;;;;5053167;28;20024;-78
2021/05/13 08:16:56;;;;;;;2.38;2.10;;;15.40;74.20;;;;;;5053041;28;20029;-77
2021/05/13 08:19:22;;;;;;;3.45;2.47;;;15.40;74.10;;;;;;5054125;28;20038;-78
2021/05/13 08:21:48;;;;;;;3.33;2.47;;;15.40;73.90;;;;;;5073143;28;20025;-78
2021/05/13 08:24:13;;;;;;;2.70;2.28;;;15.50;73.80;;;;;;5055099;28;20039;-77
2021/05/13 08:26:39;;;;;;;2.60;2.17;;;15.50;73.70;;;;;;5073044;28;20024;-77
2021/05/13 08:29:04;;;;;;;3.70;2.45;;;15.60;73.70;;;;;;5073125;28;20469;-77
2021/05/13 08:31:30;;;;;;;3.53;2.47;;;15.70;73.40;;;;;;5072717;28;20024;-78
2021/05/13 08:33:55;;;;;;;3.17;2.42;;;15.80;73.30;;;;;;5072711;28;20100;-77
2021/05/13 08:36:21;;;;;;;3.20;2.45;;;15.90;73.30;;;;;;5072990;28;20028;-77
2021/05/13 08:38:46;;;;;;;2.97;2.63;;;16.00;73.10;;;;;;5072819;28;20048;-79
2021/05/13 08:41:13;;;;;;;2.95;2.55;;;16.10;73.00;;;;;;5054914;28;20098;-79
2021/05/13 08:43:39;;;;;;;3.97;2.42;;;16.10;72.90;;;;;;5054724;28;20369;-78
2021/05/13 08:46:04;;;;;;;3.72;2.40;;;16.20;72.90;;;;;;5072828;28;20070;-77
2021/05/13 08:48:30;;;;;;;3.28;2.55;;;16.30;72.90;;;;;;5072399;28;20035;-77
2021/05/13 08:50:56;;;;;;;3.72;2.53;;;16.40;72.70;;;;;;5072943;28;20437;-77
2021/05/13 08:53:22;;;;;;;3.42;2.53;;;16.40;72.70;;;;;;5072719;28;20070;-78
2021/05/13 08:55:48;;;;;;;5.15;2.90;;;16.50;72.70;;;;;;5072690;28;20025;-77
2021/05/13 08:58:14;;;;;;;2.95;2.45;;;16.50;72.50;;;;;;5072729;28;20041;-77
2021/05/13 09:00:49;;;;;;;3.28;2.72;;;16.50;72.50;;;;;;5072600;28;20083;-78
2021/05/13 09:03:36;;;;;;;3.63;2.78;;;16.70;73.00;;;;;;5072464;28;20070;-77
2021/05/13 09:06:03;;;;;;;2.92;2.13;;;16.80;72.20;;;;;;5074938;28;20511;-78
2021/05/13 09:08:29;;;;;;;2.72;2.30;;;16.80;72.10;;;;;;5076555;28;20029;-77
2021/05/13 09:11:09;;;;;;;3.15;2.67;;;16.90;71.90;;;;;;5076497;28;20029;-78
2021/05/13 09:13:35;;;;;;;3.95;2.85;;;17.10;71.70;;;;;;5076367;28;20032;-77
2021/05/13 09:16:02;;;;;;;3.83;3.00;;;17.30;71.40;;;;;;5076130;28;20025;-79
2021/05/13 09:18:33;;;;;;;4.15;3.00;;;17.30;71.10;;;;;;5076331;28;20037;-77
2021/05/13 09:21:04;;;;;;;4.65;2.70;;;17.40;71.00;;;;;;5076054;28;20053;-78
2021/05/13 09:23:30;;;;;;;3.75;2.90;;;17.50;70.90;;;;;;5076136;28;20035;-78
2021/05/13 09:26:17;;;;;;;3.90;2.85;;;17.70;70.80;;;;;;5076155;28;20399;-77
2021/05/13 09:28:45;;;;;;;4.13;2.55;;;17.80;70.60;;;;;;5076058;28;20115;-79
2021/05/13 09:31:31;;;;;;;3.58;3.05;;;18.00;70.20;;;;;;5075739;28;20016;-76
2021/05/13 09:34:05;;;;;;;3.72;2.40;;;18.10;70.20;;;;;;5075948;28;20506;-78
2021/05/13 09:36:31;;;;;;;3.25;2.30;;;18.20;70.00;;;;;;5076025;28;20048;-78
2021/05/13 09:38:57;;;;;;;3.22;2.00;;;18.30;69.80;;;;;;5075949;28;20056;-78
2021/05/13 09:41:31;;;;;;;2.33;2.10;;;18.30;69.70;;;;;;5075930;28;20480;-78
2021/05/13 09:43:57;;;;;;;2.60;2.13;;;18.40;69.50;;;;;;5075657;28;20021;-76
2021/05/13 09:46:36;;;;;;;2.45;1.80;;;18.50;69.40;;;;;;5075249;28;20093;-78
2021/05/13 09:49:03;;;;;;;3.22;2.28;;;18.60;69.10;;;;;;5075808;28;20028;-76
2021/05/13 09:51:31;;;;;;;1.75;1.60;;;18.80;68.80;;;;;;5075553;28;20036;-78
2021/05/13 09:54:16;;;;;;;2.38;1.80;;;19.00;68.50;;;;;;5057948;28;20040;-77
2021/05/13 09:56:47;;;;;;;1.65;1.45;;;19.20;68.10;;;;;;5058584;28;20489;-79
2021/05/13 09:59:38;;;;;;;1.75;1.65;;;19.40;67.80;;;;;;5032538;28;20037;-78
2021/05/13 10:02:06;;;;;;;2.42;1.65;;;19.50;67.50;;;;;;5033657;28;20022;-76
2021/05/13 10:04:31;;;;;;;1.58;1.40;;;19.50;67.60;;;;;;5032972;28;20090;-78
2021/05/13 10:06:57;;;;;;;2.17;1.83;;;19.60;67.60;;;;;;5032869;28;20395;-78
2021/05/13 10:09:23;;;;;;;2.45;1.77;;;19.70;67.30;;;;;;5032437;28;20535;-77
2021/05/13 10:11:50;;;;;;;1.48;1.20;;;19.90;67.00;;;;;;5032698;28;20429;-76
2021/05/13 10:14:16;;;;;;;1.25;1.15;;;20.00;66.70;;;;;;5032281;28;20021;-76
2021/05/13 10:16:43;;;;;;;1.77;1.10;;;20.00;66.40;;;;;;5032032;28;20091;-76
2021/05/13 10:19:14;;;;;;;1.00;0.90;;;20.10;66.20;;;;;;5032399;28;20125;-76
2021/05/13 10:21:44;;;;;;;1.65;1.20;;;20.20;66.10;;;;;;4995045;28;20088;-78
2021/05/13 10:24:12;;;;;;;1.35;1.25;;;20.30;66.00;;;;;;5012682;28;20057;-76
2021/05/13 10:26:41;;;;;;;1.10;1.10;;;20.40;65.80;;;;;;4995057;28;20121;-76
2021/05/13 10:29:21;;;;;;;1.05;1.02;;;20.30;65.90;;;;;;5010600;28;20112;-76
2021/05/13 10:32:00;;;;;;;1.48;1.10;;;20.20;66.00;;;;;;5012499;28;20105;-78
2021/05/13 10:34:40;;;;;;;1.40;1.30;;;20.20;66.10;;;;;;5012501;28;20030;-77
2021/05/13 10:37:22;;;;;;;0.80;0.80;;;20.20;66.20;;;;;;5010896;28;20435;-76
2021/05/13 10:40:19;;;;;;;1.25;1.15;;;20.30;66.10;;;;;;5012533;28;20037;-76
2021/05/13 10:42:46;;;;;;;1.55;1.30;;;20.40;65.70;;;;;;5012434;28;20095;-77
2021/05/13 10:45:24;;;;;;;1.33;1.08;;;20.50;65.50;;;;;;5011567;28;20022;-78
2021/05/13 10:48:38;;;;;;;0.63;0.63;;;20.60;65.50;;;;;;5012267;28;20026;-77
2021/05/13 10:51:07;;;;;;;1.40;0.90;;;20.80;65.00;;;;;;4989986;28;20096;-75
2021/05/13 10:56:23;;;;;;;0.80;0.70;;;21.20;64.30;;;;;;4989977;28;20132;-75
2021/05/13 10:59:02;;;;;;;0.60;0.60;;;21.40;64.00;;;;;;4989446;28;20054;-76
2021/05/13 11:01:47;;;;;;;0.60;0.60;;;21.40;63.90;;;;;;4989787;28;20042;-75
2021/05/13 11:04:22;;;;;;;0.90;0.90;;;21.60;63.90;;;;;;4989788;28;20630;-77
2021/05/13 11:06:54;;;;;;;0.70;0.70;;;21.60;63.60;;;;;;4989706;28;20037;-76
2021/05/13 11:09:41;;;;;;;1.40;1.30;;;21.60;63.50;;;;;;4989512;28;20022;-76
2021/05/13 11:12:13;;;;;;;1.38;1.17;;;21.60;63.50;;;;;;4989173;28;20304;-76
2021/05/13 11:18:02;;;;;;;1.60;1.50;;;21.80;63.40;;;;;;4989354;28;20070;-75
2021/05/13 11:20:29;;;;;;;1.23;1.13;;;22.00;63.20;;;;;;4999632;28;20394;-75
2021/05/13 11:23:05;;;;;;;1.70;1.60;;;22.00;63.00;;;;;;5009099;28;20030;-77
2021/05/13 11:25:54;;;;;;;1.25;1.15;;;22.00;63.00;;;;;;5025962;28;20049;-75
2021/05/13 11:28:41;;;;;;;1.35;1.20;;;21.80;63.30;;;;;;5029511;28;20029;-76
2021/05/13 11:31:07;;;;;;;2.05;1.40;;;21.70;63.60;;;;;;5030916;28;20036;-76
2021/05/13 11:33:45;;;;;;;1.02;1.00;;;22.20;63.00;;;;;;5030885;28;20104;-75
2021/05/13 11:36:13;;;;;;;1.20;1.10;;;23.10;61.30;;;;;;5030903;28;20021;-76
2021/05/13 11:38:39;;;;;;;1.98;1.48;;;23.80;60.10;;;;;;5029432;28;20116;-75
2021/05/13 11:41:06;;;;;;;0.80;0.80;;;24.40;59.10;;;;;;5030419;28;20025;-75
2021/05/13 11:43:39;;;;;;;1.08;1.08;;;24.80;59.00;;;;;;5030901;28;20033;-75
2021/05/13 11:46:07;;;;;;;1.05;0.98;;;25.00;58.00;;;;;;5030682;28;20022;-78
2021/05/13 11:48:44;;;;;;;1.03;1.03;;;24.80;58.10;;;;;;5030831;28;20482;-76
2021/05/13 11:51:15;;;;;;;1.33;1.23;;;24.30;58.70;;;;;;5030643;28;20036;-74
2021/05/13 11:53:43;;;;;;;1.48;1.38;;;24.10;59.60;;;;;;5030755;28;20018;-74
2021/05/13 11:56:09;;;;;;;1.15;1.15;;;24.30;59.30;;;;;;5030103;28;20025;-74
2021/05/13 11:58:43;;;;;;;2.42;1.80;;;23.90;59.40;;;;;;5030577;28;20115;-75
2021/05/13 12:01:29;;;;;;;1.88;1.77;;;23.50;59.60;;;;;;5031587;28;20497;-75
2021/05/13 12:04:14;;;;;;;2.28;2.08;;;22.60;60.60;;;;;;5036075;28;20045;-75
2021/05/13 12:06:41;;;;;;;1.50;1.40;;;21.90;61.80;;;;;;5050676;28;20073;-75
2021/05/13 12:09:07;;;;;;;1.48;1.38;;;21.50;62.40;;;;;;5050233;28;20087;-75
2021/05/13 12:11:32;;;;;;;1.95;1.60;;;21.20;63.10;;;;;;5050256;28;20037;-76
2021/05/13 12:13:59;;;;;;;1.05;1.05;;;21.00;62.40;;;;;;5050553;28;20083;-76
2021/05/13 12:16:26;;;;;;;0.88;0.88;;;21.30;62.10;;;;;;5050380;28;20040;-74
2021/05/13 12:19:00;;;;;;;1.50;1.40;;;22.00;60.60;;;;;;5050217;28;20456;-76
2021/05/13 12:21:26;;;;;;;1.20;1.10;;;22.60;59.30;;;;;;5049944;28;20037;-75
2021/05/13 12:23:52;;;;;;;2.10;1.30;;;23.10;58.40;;;;;;5050316;28;20037;-75
2021/05/13 12:26:26;;;;;;;1.00;0.90;;;23.50;57.90;;;;;;5049742;28;20027;-76
2021/05/13 12:28:52;;;;;;;0.85;0.85;;;23.90;57.30;;;;;;5050343;28;20048;-74
2021/05/13 12:31:29;;;;;;;1.08;1.08;;;24.30;57.10;;;;;;5050288;28;20025;-75
2021/05/13 12:33:55;;;;;;;1.33;1.20;;;24.60;56.70;;;;;;5050215;28;20025;-76
2021/05/13 12:36:21;;;;;;;1.05;0.88;;;24.60;56.90;;;;;;5046916;28;20057;-75
2021/05/13 12:38:47;;;;;;;1.20;1.10;;;24.60;56.90;;;;;;5049684;28;20134;-76
2021/05/13 12:41:25;;;;;;;1.35;1.25;;;24.70;56.70;;;;;;5054784;28;20029;-77
2021/05/13 12:43:51;;;;;;;1.27;1.05;;;25.00;56.40;;;;;;5057099;28;20444;-75
2021/05/13 12:46:21;;;;;;;1.30;1.20;;;25.00;56.20;;;;;;5056532;28;20124;-76
2021/05/13 12:48:48;;;;;;;1.25;1.15;;;25.00;56.20;;;;;;5056755;28;20421;-75
2021/05/13 12:51:22;;;;;;;1.27;1.17;;;25.00;56.20;;;;;;5056863;28;20104;-76
2021/05/13 12:53:58;;;;;;;1.23;1.08;;;25.20;55.80;;;;;;5056431;28;20044;-76
2021/05/13 12:56:29;;;;;;;1.33;0.98;;;25.60;55.30;;;;;;5055402;28;20041;-76
2021/05/13 12:59:04;;;;;;;1.92;1.40;;;26.00;54.90;;;;;;5056373;28;20040;-74
2021/05/13 13:01:30;;;;;;;1.90;1.65;;;26.10;54.20;;;;;;5055213;28;20436;-76
2021/05/13 13:03:57;;;;;;;1.20;1.13;;;25.90;54.50;;;;;;5056572;28;20025;-77
2021/05/13 13:06:23;;;;;;;1.30;1.20;;;26.00;54.40;;;;;;5056427;28;20123;-77